Time;durP1;ratioP1;P1;durP2;ratioP2;P2;SDS_P1;SDS_P2;PMS_P1;PMS_P2;Temp;Humidity;BMP_temperature;BMP_pressure;BME280_temperature;BME280_humidity;BME280_pressure;Samples;Min_cycle;Max_cycle;Signal;HPM_P1;HPM_P2
2022/11/06 00:10:57;;;;;;;4.27;3.30;;;;;;;6.78;57.69;100548.66;10527729;28;20249;-82
2022/11/06 00:16:19;;;;;;;4.90;3.30;;;;;;;6.88;57.05;100538.13;10524145;28;20206;-82
2022/11/06 00:21:42;;;;;;;4.23;2.80;;;;;;;6.91;57.71;100540.31;10524670;28;20195;-81
2022/11/06 00:27:04;;;;;;;8.93;2.73;;;;;;;6.76;57.27;100545.34;10527270;28;20500;-81
2022/11/06 00:32:26;;;;;;;8.17;3.30;;;;;;;6.59;57.95;100540.28;10520783;28;20696;-83
2022/11/06 00:37:48;;;;;;;7.73;3.20;;;;;;;6.62;57.54;100542.47;10524671;28;20280;-82
2022/11/06 00:43:10;;;;;;;3.50;2.50;;;;;;;6.90;57.38;100543.41;10527645;28;20480;-81
2022/11/06 00:48:33;;;;;;;6.67;2.97;;;;;;;6.82;57.42;100550.53;10523872;28;20194;-82
2022/11/06 00:53:57;;;;;;;3.90;3.00;;;;;;;6.46;58.58;100553.06;10514857;28;20233;-82
2022/11/06 00:59:19;;;;;;;6.07;2.67;;;;;;;6.38;58.64;100555.69;10526619;28;20198;-82
2022/11/06 01:04:41;;;;;;;9.23;2.57;;;;;;;6.67;58.07;100549.97;10524890;28;20195;-82
2022/11/06 01:10:04;;;;;;;3.20;2.20;;;;;;;6.51;58.13;100558.59;10524016;28;20194;-81
2022/11/06 01:15:26;;;;;;;3.13;2.10;;;;;;;6.43;58.42;100552.84;10527903;28;20203;-82
2022/11/06 01:20:48;;;;;;;3.40;2.17;;;;;;;6.04;59.73;100551.09;10525797;28;20330;-82
2022/11/06 01:26:12;;;;;;;5.90;2.20;;;;;;;5.94;59.83;100534.47;10529986;28;20654;-82
2022/11/06 01:31:34;;;;;;;6.73;2.37;;;;;;;5.69;60.42;100534.78;10524519;28;20279;-81
2022/11/06 01:36:56;;;;;;;7.77;2.30;;;;;;;6.46;58.61;100513.88;10525648;28;20558;-81
2022/11/06 01:42:19;;;;;;;3.90;1.90;;;;;;;6.20;59.20;100513.38;10516285;28;20200;-82
2022/11/06 01:47:42;;;;;;;3.40;1.93;;;;;;;5.85;59.61;100513.88;10524947;28;20183;-81
2022/11/06 01:53:04;;;;;;;3.63;1.80;;;;;;;6.03;59.46;100504.66;10522166;28;20255;-81
2022/11/06 01:58:29;;;;;;;4.57;2.00;;;;;;;6.28;58.72;100487.50;10526047;28;20252;-82
2022/11/06 02:04:11;;;;;;;4.07;2.00;;;;;;;5.92;59.46;100483.56;10531145;28;20190;-82
2022/11/06 02:09:33;;;;;;;2.63;1.63;;;;;;;5.93;59.55;100483.25;10544971;28;20240;-81
2022/11/06 02:15:20;;;;;;;4.93;1.60;;;;;;;6.14;58.59;100469.84;10544692;28;20206;-82
2022/11/06 02:21:00;;;;;;;3.17;1.67;;;;;;;6.11;58.48;100459.25;10529842;28;20480;-83
2022/11/06 02:26:53;;;;;;;6.77;1.83;;;;;;;5.97;59.45;100468.69;10529313;28;20218;-82
2022/11/06 02:32:21;;;;;;;2.50;1.80;;;;;;;5.96;59.27;100453.88;10542986;28;20218;-82
2022/11/06 02:37:45;;;;;;;5.10;1.63;;;;;;;6.34;57.77;100462.25;10529357;28;20244;-82
2022/11/06 02:43:08;;;;;;;6.93;1.70;;;;;;;6.36;57.69;100460.81;10529337;28;20199;-82
2022/11/06 02:48:33;;;;;;;2.10;1.80;;;;;;;6.24;58.28;100460.44;10529657;28;20191;-82
2022/11/06 02:53:57;;;;;;;4.23;1.40;;;;;;;6.02;58.76;100449.84;10528798;28;20270;-82
2022/11/06 02:59:24;;;;;;;3.10;1.20;;;;;;;6.04;58.62;100455.97;10543091;28;20209;-82
2022/11/06 03:04:54;;;;;;;5.50;1.50;;;;;;;5.81;59.46;100457.69;10528677;28;20232;-82
2022/11/06 03:10:16;;;;;;;4.33;1.83;;;;;;;6.17;58.78;100441.22;10542787;28;20209;-81
2022/11/06 03:15:45;;;;;;;5.87;1.70;;;;;;;5.89;59.74;100436.63;10542555;28;20210;-82
2022/11/06 03:21:21;;;;;;;3.57;1.43;;;;;;;5.96;59.85;100428.69;10542555;28;20209;-81
2022/11/06 03:26:46;;;;;;;7.47;1.70;;;;;;;6.00;59.06;100426.97;10541821;28;20224;-81
2022/11/06 03:32:13;;;;;;;4.27;1.87;;;;;;;5.75;60.06;100432.91;10541646;28;20226;-81
2022/11/06 03:37:44;;;;;;;3.93;1.50;;;;;;;6.13;59.07;100423.41;10541524;28;20264;-81
2022/11/06 03:43:07;;;;;;;2.50;1.57;;;;;;;5.69;59.66;100425.72;10541626;28;20194;-81
2022/11/06 03:48:40;;;;;;;3.67;1.40;;;;;;;5.62;60.18;100414.09;10527262;28;20198;-81
2022/11/06 03:54:06;;;;;;;3.23;1.60;;;;;;;6.13;59.01;100405.78;10541691;28;20207;-81
2022/11/06 03:59:32;;;;;;;4.83;1.20;;;;;;;6.48;57.38;100427.59;10527837;28;20583;-82
2022/11/06 04:04:58;;;;;;;3.37;1.27;;;;;;;5.77;59.97;100444.59;10524971;28;20244;-80
2022/11/06 04:16:01;;;;;;;3.97;1.20;;;;;;;5.80;59.81;100452.41;10523821;28;20211;-81
2022/11/06 04:21:53;;;;;;;3.23;1.57;;;;;;;5.55;60.59;100437.63;10523493;28;20191;-81
2022/11/06 04:27:57;;;;;;;2.13;1.43;;;;;;;5.78;59.96;100437.88;10509996;28;20265;-82
2022/11/06 04:33:25;;;;;;;3.60;1.40;;;;;;;6.02;59.75;100437.84;10499937;28;20219;-83
2022/11/06 04:39:06;;;;;;;5.80;1.47;;;;;;;5.76;60.52;100432.59;10484917;28;20252;-80
2022/11/06 04:44:31;;;;;;;5.17;1.37;;;;;;;6.18;58.79;100414.91;10505873;28;20191;-81
2022/11/06 04:49:57;;;;;;;4.93;1.30;;;;;;;5.65;61.48;100413.47;10506218;28;20534;-80
2022/11/06 04:55:20;;;;;;;5.27;1.00;;;;;;;6.04;59.09;100408.41;10515109;28;20228;-80
2022/11/06 05:00:45;;;;;;;3.43;1.03;;;;;;;5.71;60.60;100395.50;10527302;28;20186;-81
2022/11/06 05:06:07;;;;;;;3.47;1.00;;;;;;;6.15;59.21;100390.31;10501969;28;20472;-80
2022/11/06 05:11:29;;;;;;;3.47;0.97;;;;;;;6.23;58.91;100384.03;10532092;28;20209;-81
2022/11/06 05:16:51;;;;;;;4.10;1.20;;;;;;;6.19;58.79;100369.00;10539068;28;20285;-81
2022/11/06 05:27:55;;;;;;;3.77;0.70;;;;;;;5.49;61.12;100354.97;10545627;28;20267;-81
2022/11/06 05:33:17;;;;;;;3.83;1.13;;;;;;;5.64;60.90;100355.88;10546394;28;20222;-81
2022/11/06 05:38:39;;;;;;;3.00;0.80;;;;;;;5.92;60.49;100344.53;10547232;28;20210;-82
2022/11/06 05:44:01;;;;;;;3.10;0.80;;;;;;;6.10;59.37;100337.25;10546188;28;20182;-81
2022/11/06 05:49:23;;;;;;;2.23;0.70;;;;;;;6.14;59.82;100326.28;10535604;28;20203;-81
2022/11/06 05:54:45;;;;;;;2.83;0.83;;;;;;;6.15;59.64;100325.94;10534687;28;20228;-82
2022/11/06 06:00:08;;;;;;;2.60;0.80;;;;;;;5.90;60.24;100318.00;10528187;28;20494;-81
2022/11/06 06:05:30;;;;;;;5.63;0.90;;;;;;;6.05;59.49;100319.69;10534133;28;20186;-81
2022/11/06 06:10:53;;;;;;;4.20;0.90;;;;;;;5.45;62.26;100313.94;10531531;28;20224;-81
2022/11/06 06:16:15;;;;;;;3.33;0.97;;;;;;;5.46;62.29;100304.44;10527163;28;20218;-81
2022/11/06 06:21:37;;;;;;;5.03;1.43;;;;;;;5.04;63.94;100303.31;10524459;28;20195;-81
2022/11/06 06:26:59;;;;;;;3.03;1.00;;;;;;;5.13;63.44;100297.88;10520913;28;20215;-82
2022/11/06 06:32:22;;;;;;;4.27;1.13;;;;;;;5.55;62.27;100297.84;10522701;28;20268;-81
2022/11/06 06:37:52;;;;;;;5.30;1.30;;;;;;;5.67;61.85;100299.34;10530162;28;20222;-81
2022/11/06 06:43:14;;;;;;;8.83;1.27;;;;;;;5.46;62.48;100307.22;10526021;28;20194;-81
2022/11/06 06:48:36;;;;;;;4.57;1.13;;;;;;;5.38;62.44;100310.69;10522301;28;20190;-81
2022/11/06 06:53:59;;;;;;;8.13;1.40;;;;;;;5.72;61.32;100302.06;10509755;28;20598;-81
2022/11/06 06:59:21;;;;;;;6.30;1.50;;;;;;;5.56;61.43;100293.91;10511708;28;20266;-81
2022/11/06 07:04:43;;;;;;;5.13;1.33;;;;;;;5.79;61.34;100299.72;10507276;28;20549;-80
2022/11/06 07:10:05;;;;;;;3.37;1.30;;;;;;;5.81;60.88;100306.66;10506844;28;20536;-80
2022/11/06 07:15:27;;;;;;;5.40;1.40;;;;;;;5.80;60.91;100309.75;10521611;28;20909;-82
2022/11/06 07:20:50;;;;;;;2.77;0.70;;;;;;;5.62;61.70;100308.66;10520513;28;20191;-81
2022/11/06 07:26:12;;;;;;;3.20;1.70;;;;;;;5.99;60.50;100316.19;10519424;28;20561;-81
2022/11/06 07:31:35;;;;;;;2.33;1.30;;;;;;;6.54;58.56;100313.56;10499491;28;20214;-82
2022/11/06 07:36:57;;;;;;;2.33;0.67;;;;;;;6.36;58.57;100317.22;10518630;28;20206;-82
2022/11/06 07:42:19;;;;;;;5.33;1.00;;;;;;;6.03;60.21;100321.97;10522186;28;20247;-81
2022/11/06 07:47:41;;;;;;;5.63;0.80;;;;;;;6.08;59.81;100317.13;10524842;28;20252;-81
2022/11/06 07:53:04;;;;;;;3.87;1.03;;;;;;;5.96;60.16;100319.59;10518448;28;20207;-82
2022/11/06 07:58:26;;;;;;;2.80;0.53;;;;;;;6.23;59.44;100314.06;10536051;28;20215;-81
2022/11/06 08:03:48;;;;;;;1.67;0.70;;;;;;;6.63;58.66;100301.31;10522895;28;20186;-84
2022/11/06 08:09:11;;;;;;;2.23;0.60;;;;;;;6.30;59.44;100303.28;10542978;28;20198;-81
2022/11/06 08:14:33;;;;;;;5.53;0.80;;;;;;;6.94;57.85;100298.72;10520422;28;20252;-81
2022/11/06 08:19:55;;;;;;;5.97;0.93;;;;;;;6.96;57.72;100288.03;10525279;28;20558;-80
2022/11/06 08:25:17;;;;;;;5.80;1.93;;;;;;;7.15;57.32;100281.47;10521169;28;20202;-81
2022/11/06 08:30:39;;;;;;;4.90;1.10;;;;;;;7.25;56.86;100275.63;10518891;28;20198;-81
2022/11/06 08:36:03;;;;;;;3.73;1.27;;;;;;;7.16;57.54;100269.13;10515867;28;20915;-81
2022/11/06 08:41:25;;;;;;;3.53;0.90;;;;;;;6.99;57.66;100279.00;10509936;28;20586;-81
2022/11/06 08:46:50;;;;;;;3.73;0.80;;;;;;;6.96;57.77;100279.63;10499002;28;20250;-81
2022/11/06 08:52:12;;;;;;;2.97;1.30;;;;;;;7.33;56.76;100263.66;10518255;28;20211;-80
2022/11/06 08:57:34;;;;;;;4.60;1.20;;;;;;;7.38;56.39;100255.97;10501259;28;20783;-80
2022/11/06 09:02:58;;;;;;;4.43;0.80;;;;;;;7.57;56.30;100255.03;10496544;28;20241;-81
2022/11/06 09:08:21;;;;;;;2.87;0.87;;;;;;;7.37;56.63;100242.28;10504190;28;20674;-81
2022/11/06 09:13:43;;;;;;;2.73;0.90;;;;;;;7.99;55.06;100239.63;10487711;28;20711;-87
2022/11/06 09:19:05;;;;;;;2.37;0.67;;;;;;;7.60;55.87;100229.94;10506041;28;20269;-83
2022/11/06 09:24:28;;;;;;;3.10;0.80;;;;;;;7.60;55.81;100224.34;10501685;28;20218;-81
2022/11/06 09:29:50;;;;;;;4.23;0.97;;;;;;;7.85;55.23;100230.44;10501971;28;20275;-82
2022/11/06 09:35:13;;;;;;;3.10;0.90;;;;;;;7.71;55.38;100220.13;10501346;28;20258;-82
2022/11/06 09:40:37;;;;;;;2.33;0.90;;;;;;;8.21;54.87;100214.34;10530762;28;20222;-82
2022/11/06 09:46:06;;;;;;;1.73;0.70;;;;;;;8.25;54.15;100209.72;10513225;28;20226;-81
2022/11/06 09:51:41;;;;;;;3.40;0.90;;;;;;;8.05;54.63;100207.47;10523639;28;20222;-83
2022/11/06 09:57:09;;;;;;;3.07;0.93;;;;;;;7.96;55.12;100198.19;10503625;28;20259;-81
2022/11/06 10:02:38;;;;;;;2.17;0.63;;;;;;;8.69;53.65;100193.91;10502968;28;20250;-81
2022/11/06 10:08:21;;;;;;;2.23;0.90;;;;;;;8.95;53.17;100183.53;10515203;28;20219;-84
2022/11/06 10:14:08;;;;;;;2.73;0.63;;;;;;;8.57;53.21;100179.63;10499875;28;20591;-83
2022/11/06 10:19:56;;;;;;;4.53;1.00;;;;;;;8.50;53.02;100182.06;10490936;28;20272;-83
2022/11/06 10:25:20;;;;;;;7.67;0.97;;;;;;;8.71;52.76;100163.50;10498356;28;20567;-81
2022/11/06 10:30:52;;;;;;;2.73;0.80;;;;;;;8.51;53.04;100173.31;10485878;28;20221;-81
2022/11/06 10:36:17;;;;;;;4.43;1.17;;;;;;;8.86;52.36;100160.22;10499426;28;20303;-86
2022/11/06 10:41:40;;;;;;;3.03;0.73;;;;;;;8.96;51.84;100136.59;10517734;28;20236;-81
2022/11/06 10:47:13;;;;;;;3.53;0.93;;;;;;;9.25;50.76;100121.88;10497961;28;20611;-86
2022/11/06 10:52:50;;;;;;;3.60;0.90;;;;;;;9.01;51.46;100123.19;10502581;28;20657;-84
2022/11/06 10:58:14;;;;;;;4.03;0.73;;;;;;;9.55;50.54;100118.00;10508403;28;20307;-81
2022/11/06 11:03:46;;;;;;;5.70;0.97;;;;;;;9.19;50.21;100114.75;10500477;28;20211;-82
2022/11/06 11:09:28;;;;;;;2.40;0.70;;;;;;;9.55;49.78;100109.56;10485599;28;20554;-81
2022/11/06 11:15:24;;;;;;;4.83;0.90;;;;;;;9.34;49.75;100103.00;10500644;28;20247;-81
2022/11/06 11:20:48;;;;;;;4.53;1.00;;;;;;;9.32;49.70;100082.81;10503846;28;21019;-82
2022/11/06 11:26:21;;;;;;;2.77;0.90;;;;;;;9.39;49.19;100083.16;10534463;28;20492;-83
2022/11/06 11:31:45;;;;;;;10.00;5.73;;;;;;;9.36;49.21;100072.56;10531139;28;20250;-83
2022/11/06 11:37:22;;;;;;;5.43;1.10;;;;;;;9.22;48.61;100055.03;10513431;28;20257;-83
2022/11/06 11:42:44;;;;;;;4.70;0.90;;;;;;;8.99;48.38;100055.25;10516584;28;20202;-83
2022/11/06 11:48:12;;;;;;;1.33;0.90;;;;;;;9.01;48.80;100035.22;10495822;28;20275;-81
2022/11/06 11:53:37;;;;;;;1.53;0.73;;;;;;;9.33;47.91;100029.03;10493745;28;20276;-82
2022/11/06 11:59:00;;;;;;;2.00;1.07;;;;;;;9.25;48.13;100010.22;10504665;28;20322;-82
2022/11/06 12:04:27;;;;;;;3.33;1.07;;;;;;;9.12;48.63;100000.81;10504539;28;20275;-82
2022/11/06 12:09:49;;;;;;;3.97;1.10;;;;;;;9.68;47.16;99981.94;10521457;28;20214;-82
2022/11/06 12:15:21;;;;;;;1.87;1.10;;;;;;;9.39;47.71;99990.31;10519949;28;20226;-82
2022/11/06 12:20:56;;;;;;;2.27;1.00;;;;;;;9.80;46.68;99964.31;10516380;28;20529;-86
2022/11/06 12:26:38;;;;;;;2.53;1.33;;;;;;;9.38;47.02;99971.78;10525095;28;20270;-84
2022/11/06 12:32:22;;;;;;;0.97;0.67;;;;;;;9.67;46.38;99949.34;10534083;28;20218;-85
2022/11/06 12:37:54;;;;;;;4.37;1.60;;;;;;;9.49;46.25;99931.69;10510145;28;20291;-82
2022/11/06 12:43:35;;;;;;;6.37;1.80;;;;;;;8.69;47.51;99924.19;10541713;28;20239;-82
2022/11/06 12:49:34;;;;;;;3.00;1.00;;;;;;;9.64;45.78;99893.75;10537210;28;20186;-84
2022/11/06 12:55:13;;;;;;;3.27;0.70;;;;;;;9.39;46.30;99877.81;10535357;28;20553;-84
2022/11/06 13:00:40;;;;;;;1.67;0.77;;;;;;;9.56;45.71;99866.44;10520202;28;20967;-82
2022/11/06 13:06:09;;;;;;;1.83;0.77;;;;;;;8.55;46.65;99870.97;10527758;28;20252;-82
2022/11/06 13:11:50;;;;;;;3.37;0.87;;;;;;;8.97;46.95;99852.38;10507586;28;20226;-82
2022/11/06 13:17:26;;;;;;;2.73;0.90;;;;;;;8.98;46.15;99864.44;10512002;28;20291;-82
2022/11/06 13:22:51;;;;;;;4.03;0.77;;;;;;;9.09;45.81;99865.69;10509833;28;20199;-81
2022/11/06 13:28:33;;;;;;;3.50;1.37;;;;;;;9.52;44.91;99868.31;10537378;28;20246;-83
2022/11/06 13:33:57;;;;;;;3.23;0.80;;;;;;;9.47;45.08;99876.94;10523041;28;20263;-82
2022/11/06 13:39:38;;;;;;;4.47;0.90;;;;;;;9.64;44.39;99871.25;10493098;28;20242;-81
2022/11/06 13:45:01;;;;;;;4.90;1.13;;;;;;;9.39;44.71;99864.56;10518765;28;20272;-83
2022/11/06 13:50:26;;;;;;;3.57;1.00;;;;;;;9.29;44.35;99858.50;10507338;28;20656;-83
2022/11/06 13:56:08;;;;;;;3.20;0.77;;;;;;;9.21;44.82;99862.19;10496742;28;20202;-83
2022/11/06 14:01:56;;;;;;;3.27;0.70;;;;;;;9.45;44.44;99856.75;10519201;28;20216;-85
2022/11/06 14:07:19;;;;;;;7.25;3.55;;;;;;;9.35;44.68;99854.34;10520256;28;20275;-81
2022/11/06 14:12:48;;;;;;;4.83;2.87;;;;;;;9.27;44.88;99849.56;10512118;28;20591;-81
2022/11/06 14:18:21;;;;;;;1.20;0.57;;;;;;;8.94;45.49;99843.78;10524208;28;20247;-83
2022/11/06 14:23:52;;;;;;;1.43;0.50;;;;;;;8.91;45.53;99852.88;10520318;28;20675;-83
2022/11/06 14:29:26;;;;;;;2.77;0.70;;;;;;;9.34;44.79;99845.06;10528276;28;20218;-85
2022/11/06 14:34:49;;;;;;;2.60;1.30;;;;;;;9.23;44.63;99851.41;10514782;28;20253;-85
2022/11/06 14:40:12;;;;;;;2.17;1.00;;;;;;;9.30;43.25;99826.41;10512097;28;20327;-87
2022/11/06 14:45:34;;;;;;;1.33;0.60;;;;;;;9.44;42.86;99818.53;10518182;28;20230;-83
2022/11/06 14:50:58;;;;;;;3.77;0.90;;;;;;;9.73;42.15;99824.16;10493732;28;20253;-86
2022/11/06 14:56:25;;;;;;;0.87;0.50;;;;;;;9.37;42.32;99832.31;10501097;28;20210;-86
2022/11/06 15:02:04;;;;;;;3.10;1.10;;;;;;;9.66;41.50;99826.69;10505830;28;20679;-86
2022/11/06 15:07:34;;;;;;;3.03;0.90;;;;;;;9.67;41.01;99836.78;10513235;28;20222;-82
2022/11/06 15:13:16;;;;;;;2.03;0.60;;;;;;;9.28;41.92;99811.84;10515336;28;20248;-82
2022/11/06 15:18:40;;;;;;;1.37;0.50;;;;;;;9.26;42.48;99808.56;10513065;28;20250;-85
2022/11/06 15:24:06;;;;;;;4.80;2.20;;;;;;;8.94;43.09;99810.03;10516175;28;20203;-81
2022/11/06 15:29:31;;;;;;;4.87;1.40;;;;;;;8.56;43.93;99808.00;10509565;28;20238;-80
2022/11/06 15:35:05;;;;;;;4.20;1.50;;;;;;;8.95;42.73;99804.09;10509945;28;20279;-84
2022/11/06 15:40:37;;;;;;;3.03;1.53;;;;;;;8.99;42.70;99805.06;10508907;28;20225;-81
2022/11/06 15:46:03;;;;;;;1.63;1.33;;;;;;;9.08;41.83;99799.41;10508044;28;20218;-82
2022/11/06 15:51:27;;;;;;;2.50;1.27;;;;;;;8.88;42.97;99794.53;10497866;28;20221;-83
2022/11/06 15:56:52;;;;;;;1.47;0.90;;;;;;;8.71;42.80;99806.66;10498243;28;20302;-82
2022/11/06 16:02:17;;;;;;;3.23;0.83;;;;;;;8.96;42.54;99793.66;10511611;28;20223;-82
2022/11/06 16:07:39;;;;;;;1.27;0.67;;;;;;;8.73;42.90;99807.16;10522358;28;20226;-83
2022/11/06 16:13:02;;;;;;;2.20;1.07;;;;;;;8.92;44.93;99807.56;10500546;28;20271;-83
2022/11/06 16:18:28;;;;;;;1.30;0.73;;;;;;;8.74;46.46;99825.69;10499646;28;20303;-82
2022/11/06 16:23:57;;;;;;;4.03;0.95;;;;;;;8.34;47.72;99839.94;10502068;28;20252;-83
2022/11/06 16:29:23;;;;;;;1.10;0.73;;;;;;;8.59;47.73;99834.59;10503954;28;20289;-82
2022/11/06 16:34:47;;;;;;;1.13;0.43;;;;;;;7.70;50.26;99831.38;10501823;28;20835;-81
2022/11/06 16:40:55;;;;;;;0.90;0.60;;;;;;;7.96;51.09;99808.13;10502103;28;20320;-85
2022/11/06 16:46:17;;;;;;;0.93;0.60;;;;;;;7.92;51.96;99796.72;10503482;28;20267;-82
2022/11/06 16:51:39;;;;;;;2.53;0.90;;;;;;;7.44;54.70;99751.16;10512980;28;20235;-81
2022/11/06 16:57:15;;;;;;;1.93;1.03;;;;;;;7.40;53.01;99720.13;10504775;28;20579;-80
2022/11/06 17:02:38;;;;;;;1.50;0.80;;;;;;;7.41;52.41;99687.31;10510702;28;20272;-83
2022/11/06 17:08:25;;;;;;;4.17;1.23;;;;;;;7.47;53.21;99686.81;10510076;28;20229;-82
2022/11/06 17:13:48;;;;;;;2.43;0.93;;;;;;;8.19;50.02;99693.66;10496673;28;20223;-83
2022/11/06 17:19:10;;;;;;;1.57;1.20;;;;;;;7.78;50.58;99702.66;10503354;28;20250;-82
2022/11/06 17:24:32;;;;;;;5.53;2.50;;;;;;;7.72;51.44;99694.41;10499110;28;20219;-82
2022/11/06 17:29:55;;;;;;;2.63;1.40;;;;;;;7.62;50.38;99685.50;10503607;28;20363;-83
2022/11/06 17:35:17;;;;;;;1.70;1.60;;;;;;;7.30;52.12;99686.84;10502858;28;20251;-81
2022/11/06 17:40:41;;;;;;;3.80;1.60;;;;;;;7.40;51.12;99692.09;10499731;28;20296;-83
2022/11/06 17:46:03;;;;;;;4.30;1.43;;;;;;;7.60;50.78;99674.63;10505176;28;20222;-83
2022/11/06 17:57:07;;;;;;;11.83;7.53;;;;;;;7.53;49.89;99651.84;10514877;28;20858;-82
2022/11/06 18:02:30;;;;;;;7.97;4.03;;;;;;;7.48;49.49;99649.22;10498615;28;20215;-81
2022/11/06 18:07:53;;;;;;;3.40;1.57;;;;;;;7.14;50.52;99627.63;10501675;28;20218;-83
2022/11/06 18:13:15;;;;;;;2.23;1.53;;;;;;;7.31;50.24;99610.81;10495523;28;20204;-80
2022/11/06 18:18:37;;;;;;;2.27;1.57;;;;;;;7.01;51.41;99590.22;10509009;28;20272;-81
2022/11/06 18:23:59;;;;;;;2.23;1.37;;;;;;;7.14;49.60;99596.00;10499833;28;20283;-85
2022/11/06 18:29:21;;;;;;;3.80;1.60;;;;;;;7.13;50.52;99586.75;10495242;28;20235;-83
2022/11/06 18:34:44;;;;;;;2.97;1.77;;;;;;;7.44;49.51;99580.97;10494174;28;20230;-82
2022/11/06 18:40:06;;;;;;;5.10;2.17;;;;;;;7.41;48.87;99592.81;10494208;28;20273;-85
2022/11/06 18:45:29;;;;;;;2.40;1.57;;;;;;;6.99;49.45;99614.13;10505406;28;20252;-83
2022/11/06 18:50:51;;;;;;;5.47;2.37;;;;;;;7.24;49.46;99638.50;10507178;28;20222;-83
2022/11/06 18:56:16;;;;;;;5.60;3.57;;;;;;;7.07;49.63;99627.28;10535207;28;20256;-81
2022/11/06 19:01:38;;;;;;;4.33;1.93;;;;;;;7.18;49.48;99596.97;10530811;28;20271;-82
2022/11/06 19:07:00;;;;;;;14.33;5.53;;;;;;;7.43;48.90;99606.50;10529951;28;20210;-84
2022/11/06 19:12:22;;;;;;;4.13;2.00;;;;;;;7.35;49.29;99606.19;10505118;28;20304;-81
2022/11/06 19:17:44;;;;;;;3.67;1.83;;;;;;;7.22;49.38;99623.16;10488341;28;20231;-81
2022/11/06 19:23:08;;;;;;;3.27;1.77;;;;;;;7.42;48.79;99610.47;10505466;28;20241;-80
2022/11/06 19:28:30;;;;;;;2.77;1.80;;;;;;;7.17;48.91;99628.97;10490800;28;20621;-80
2022/11/06 19:33:52;;;;;;;7.20;3.23;;;;;;;7.42;49.05;99624.50;10487197;28;20254;-81
2022/11/06 19:39:14;;;;;;;3.43;1.87;;;;;;;7.46;48.54;99629.09;10498705;28;20242;-84
2022/11/06 19:44:36;;;;;;;4.37;2.20;;;;;;;7.43;49.25;99624.16;10486616;28;20226;-83
2022/11/06 19:49:58;;;;;;;4.07;1.90;;;;;;;7.41;49.12;99636.84;10498887;28;20240;-81
2022/11/06 19:55:20;;;;;;;3.60;2.00;;;;;;;7.40;49.39;99640.81;10488284;28;20289;-81
2022/11/06 20:00:43;;;;;;;2.77;1.60;;;;;;;7.33;49.01;99646.91;10484776;28;20322;-81
2022/11/06 20:06:06;;;;;;;5.70;2.20;;;;;;;7.34;49.42;99654.16;10488537;28;20245;-83
2022/11/06 20:11:28;;;;;;;4.77;2.63;;;;;;;7.39;49.73;99656.81;10491537;28;20721;-81
2022/11/06 20:16:50;;;;;;;2.00;1.40;;;;;;;7.44;50.07;99665.06;10523934;28;20251;-82
2022/11/06 20:22:12;;;;;;;3.33;2.10;;;;;;;7.88;49.32;99665.84;10536689;28;20295;-80
2022/11/06 20:27:34;;;;;;;3.97;1.93;;;;;;;7.60;50.81;99671.81;10497274;28;20246;-81
2022/11/06 20:32:56;;;;;;;1.60;1.17;;;;;;;7.69;50.75;99688.66;10499192;28;20304;-82
2022/11/06 20:38:18;;;;;;;4.10;1.83;;;;;;;7.58;51.03;99693.75;10511341;28;20555;-81
2022/11/06 20:43:41;;;;;;;2.10;1.50;;;;;;;7.30;52.30;99689.63;10518736;28;20553;-82
2022/11/06 20:49:03;;;;;;;1.73;1.30;;;;;;;8.13;50.30;99694.97;10536631;28;20190;-81
2022/11/06 20:54:25;;;;;;;2.43;1.40;;;;;;;7.70;51.24;99691.13;10534118;28;20460;-81
2022/11/06 20:59:47;;;;;;;3.37;1.27;;;;;;;7.47;52.77;99686.81;10528959;28;20555;-81
2022/11/06 21:05:10;;;;;;;2.73;1.03;;;;;;;7.73;52.00;99690.44;10532486;28;20198;-81
2022/11/06 21:10:32;;;;;;;2.03;1.07;;;;;;;7.42;52.64;99703.81;10523903;28;20542;-81
2022/11/06 21:16:02;;;;;;;1.57;1.10;;;;;;;7.62;52.91;99707.94;10504400;28;20217;-81
2022/11/06 21:21:27;;;;;;;3.20;1.03;;;;;;;7.79;52.68;99704.31;10509294;28;20254;-82
2022/11/06 21:26:53;;;;;;;2.03;1.50;;;;;;;7.67;53.62;99713.41;10533911;28;20263;-81
2022/11/06 21:32:15;;;;;;;2.60;1.50;;;;;;;7.43;54.26;99719.50;10523118;28;20226;-82
2022/11/06 21:37:37;;;;;;;2.90;1.10;;;;;;;7.62;53.89;99707.94;10539146;28;20198;-82
2022/11/06 21:43:00;;;;;;;2.30;1.37;;;;;;;7.80;54.12;99734.84;10544896;28;20194;-82
2022/11/06 21:48:22;;;;;;;4.20;1.20;;;;;;;7.46;55.52;99746.84;10545748;28;20198;-82
2022/11/06 21:59:27;;;;;;;2.23;0.93;;;;;;;7.78;55.34;99758.75;10541955;28;20238;-83
2022/11/06 22:04:49;;;;;;;2.13;0.93;;;;;;;8.01;54.83;99769.47;10544317;28;20194;-81
2022/11/06 22:10:11;;;;;;;1.73;1.17;;;;;;;7.56;55.91;99752.19;10544858;28;20221;-82
2022/11/06 22:15:33;;;;;;;2.70;1.03;;;;;;;7.84;56.06;99757.47;10508536;28;20253;-82
2022/11/06 22:21:11;;;;;;;2.77;1.17;;;;;;;7.66;56.76;99751.03;10522287;28;20275;-82
2022/11/06 22:26:34;;;;;;;3.30;1.00;;;;;;;7.94;56.13;99754.31;10543761;28;20243;-83
2022/11/06 22:31:56;;;;;;;3.63;1.43;;;;;;;7.62;57.24;99759.25;10541636;28;20226;-83
2022/11/06 22:37:18;;;;;;;3.30;1.40;;;;;;;8.43;54.92;99776.16;10509123;28;20595;-82
2022/11/06 22:42:40;;;;;;;2.60;1.17;;;;;;;7.97;56.66;99770.44;10536730;28;20226;-83
2022/11/06 22:48:02;;;;;;;3.97;1.30;;;;;;;8.08;56.57;99785.81;10503648;28;20198;-84
2022/11/06 22:53:24;;;;;;;1.53;0.83;;;;;;;7.78;57.77;99781.22;10523252;28;20606;-83
2022/11/06 22:58:46;;;;;;;1.73;1.13;;;;;;;8.57;56.03;99769.50;10528421;28;20259;-83
2022/11/06 23:04:13;;;;;;;2.37;1.10;;;;;;;7.90;57.65;99779.38;10542870;28;20202;-82
2022/11/06 23:09:35;;;;;;;3.07;0.83;;;;;;;7.84;57.54;99791.13;10541538;28;20194;-83
2022/11/06 23:14:57;;;;;;;4.07;1.20;;;;;;;7.90;57.04;99781.38;10504330;28;20262;-83
2022/11/06 23:20:20;;;;;;;3.03;1.20;;;;;;;7.83;58.22;99778.25;10528502;28;20218;-82
2022/11/06 23:25:41;;;;;;;1.30;0.70;;;;;;;8.42;56.85;99785.75;10542183;28;20214;-82
2022/11/06 23:31:05;;;;;;;2.33;1.17;;;;;;;8.03;58.67;99800.00;10541278;28;20195;-82
2022/11/06 23:36:28;;;;;;;3.80;1.00;;;;;;;9.00;54.59;99801.09;10522836;28;20236;-81
2022/11/06 23:41:50;;;;;;;1.90;0.93;;;;;;;7.85;57.98;99804.78;10510757;28;20214;-81
2022/11/06 23:47:12;;;;;;;1.17;0.90;;;;;;;7.82;59.36;99813.91;10531655;28;20507;-81
2022/11/06 23:52:34;;;;;;;3.17;0.80;;;;;;;8.32;57.95;99807.75;10512763;28;20229;-81
2022/11/06 23:57:56;;;;;;;1.37;0.63;;;;;;;8.23;58.51;99809.75;10510848;28;20195;-80
